sensor_id;sensor_type;location;lat;lon;timestamp;temperature;humidity
66752;SHT31;53663;42.676;23.238;2023-02-15T00:01:18;2.66;71.03
66752;SHT31;53663;42.676;23.238;2023-02-15T00:03:43;2.58;71.19
66752;SHT31;53663;42.676;23.238;2023-02-15T00:06:09;2.53;71.16
66752;SHT31;53663;42.676;23.238;2023-02-15T00:08:34;2.50;71.35
66752;SHT31;53663;42.676;23.238;2023-02-15T00:11:08;2.53;71.45
66752;SHT31;53663;42.676;23.238;2023-02-15T00:13:33;2.50;71.48
66752;SHT31;53663;42.676;23.238;2023-02-15T00:16:02;2.50;71.54
66752;SHT31;53663;42.676;23.238;2023-02-15T00:18:29;2.52;71.45
66752;SHT31;53663;42.676;23.238;2023-02-15T00:20:54;2.44;71.67
66752;SHT31;53663;42.676;23.238;2023-02-15T00:23:20;2.41;71.80
66752;SHT31;53663;42.676;23.238;2023-02-15T00:25:45;2.44;72.10
66752;SHT31;53663;42.676;23.238;2023-02-15T00:28:11;2.31;72.35
66752;SHT31;53663;42.676;23.238;2023-02-15T00:30:36;2.24;72.54
66752;SHT31;53663;42.676;23.238;2023-02-15T00:33:02;2.24;72.76
66752;SHT31;53663;42.676;23.238;2023-02-15T00:35:27;2.22;72.70
66752;SHT31;53663;42.676;23.238;2023-02-15T00:37:53;2.27;72.70
66752;SHT31;53663;42.676;23.238;2023-02-15T00:40:18;2.28;72.54
66752;SHT31;53663;42.676;23.238;2023-02-15T00:42:44;2.21;72.67
66752;SHT31;53663;42.676;23.238;2023-02-15T00:45:09;2.24;72.65
66752;SHT31;53663;42.676;23.238;2023-02-15T00:47:35;2.24;72.63
66752;SHT31;53663;42.676;23.238;2023-02-15T00:50:00;2.24;72.79
66752;SHT31;53663;42.676;23.238;2023-02-15T00:52:28;2.31;72.46
66752;SHT31;53663;42.676;23.238;2023-02-15T00:54:55;2.34;72.36
66752;SHT31;53663;42.676;23.238;2023-02-15T00:57:20;2.32;72.42
66752;SHT31;53663;42.676;23.238;2023-02-15T00:59:46;2.28;72.36
66752;SHT31;53663;42.676;23.238;2023-02-15T01:02:11;2.34;72.37
66752;SHT31;53663;42.676;23.238;2023-02-15T01:04:37;2.29;72.38
66752;SHT31;53663;42.676;23.238;2023-02-15T01:07:02;2.27;72.39
66752;SHT31;53663;42.676;23.238;2023-02-15T01:09:32;2.27;72.55
66752;SHT31;53663;42.676;23.238;2023-02-15T01:11:57;2.25;72.46
66752;SHT31;53663;42.676;23.238;2023-02-15T01:14:25;2.32;72.45
66752;SHT31;53663;42.676;23.238;2023-02-15T01:16:51;2.32;72.44
66752;SHT31;53663;42.676;23.238;2023-02-15T01:19:16;2.29;72.52
66752;SHT31;53663;42.676;23.238;2023-02-15T01:21:42;2.27;72.50
66752;SHT31;53663;42.676;23.238;2023-02-15T01:24:13;2.22;72.70
66752;SHT31;53663;42.676;23.238;2023-02-15T01:26:38;2.25;72.66
66752;SHT31;53663;42.676;23.238;2023-02-15T01:29:04;2.25;72.59
66752;SHT31;53663;42.676;23.238;2023-02-15T01:31:30;2.24;72.64
66752;SHT31;53663;42.676;23.238;2023-02-15T01:33:56;2.25;72.43
66752;SHT31;53663;42.676;23.238;2023-02-15T01:36:21;2.28;72.35
66752;SHT31;53663;42.676;23.238;2023-02-15T01:38:47;2.20;72.48
66752;SHT31;53663;42.676;23.238;2023-02-15T01:41:13;2.27;72.74
66752;SHT31;53663;42.676;23.238;2023-02-15T01:44:00;2.24;72.43
66752;SHT31;53663;42.676;23.238;2023-02-15T01:46:40;2.14;72.88
66752;SHT31;53663;42.676;23.238;2023-02-15T01:49:15;2.14;73.20
66752;SHT31;53663;42.676;23.238;2023-02-15T01:51:44;2.14;73.19
66752;SHT31;53663;42.676;23.238;2023-02-15T01:54:22;2.14;73.29
66752;SHT31;53663;42.676;23.238;2023-02-15T01:56:50;2.18;73.15
66752;SHT31;53663;42.676;23.238;2023-02-15T01:59:19;2.22;73.01
66752;SHT31;53663;42.676;23.238;2023-02-15T02:01:49;2.17;73.21
66752;SHT31;53663;42.676;23.238;2023-02-15T02:04:29;2.14;73.38
66752;SHT31;53663;42.676;23.238;2023-02-15T02:06:57;2.11;73.56
66752;SHT31;53663;42.676;23.238;2023-02-15T02:09:24;2.14;73.51
66752;SHT31;53663;42.676;23.238;2023-02-15T02:11:50;2.15;73.43
66752;SHT31;53663;42.676;23.238;2023-02-15T02:14:16;2.11;73.56
66752;SHT31;53663;42.676;23.238;2023-02-15T02:16:49;2.06;73.71
66752;SHT31;53663;42.676;23.238;2023-02-15T02:27:57;2.03;73.84
66752;SHT31;53663;42.676;23.238;2023-02-15T02:36:23;2.00;74.20
66752;SHT31;53663;42.676;23.238;2023-02-15T02:49:39;2.08;74.03
66752;SHT31;53663;42.676;23.238;2023-02-15T02:52:58;2.13;73.96
66752;SHT31;53663;42.676;23.238;2023-02-15T02:55:31;2.04;74.08
66752;SHT31;53663;42.676;23.238;2023-02-15T03:00:48;2.14;73.90
66752;SHT31;53663;42.676;23.238;2023-02-15T03:03:41;2.20;73.82
66752;SHT31;53663;42.676;23.238;2023-02-15T03:06:12;2.25;73.68
66752;SHT31;53663;42.676;23.238;2023-02-15T03:08:47;2.32;73.50
66752;SHT31;53663;42.676;23.238;2023-02-15T03:11:13;2.31;73.52
66752;SHT31;53663;42.676;23.238;2023-02-15T03:13:40;2.28;73.71
66752;SHT31;53663;42.676;23.238;2023-02-15T03:16:07;2.34;73.42
66752;SHT31;53663;42.676;23.238;2023-02-15T03:19:17;2.35;73.41
66752;SHT31;53663;42.676;23.238;2023-02-15T03:21:47;2.35;73.40
66752;SHT31;53663;42.676;23.238;2023-02-15T03:24:43;2.29;73.48
66752;SHT31;53663;42.676;23.238;2023-02-15T03:27:15;2.32;73.55
66752;SHT31;53663;42.676;23.238;2023-02-15T03:29:44;2.34;73.52
66752;SHT31;53663;42.676;23.238;2023-02-15T03:32:12;2.32;73.59
66752;SHT31;53663;42.676;23.238;2023-02-15T03:34:40;2.35;73.56
66752;SHT31;53663;42.676;23.238;2023-02-15T03:37:13;2.31;73.72
66752;SHT31;53663;42.676;23.238;2023-02-15T03:39:54;2.29;73.78
66752;SHT31;53663;42.676;23.238;2023-02-15T03:42:25;2.35;73.71
66752;SHT31;53663;42.676;23.238;2023-02-15T03:44:57;2.35;73.60
66752;SHT31;53663;42.676;23.238;2023-02-15T03:47:28;2.38;73.64
66752;SHT31;53663;42.676;23.238;2023-02-15T03:52:53;2.35;73.77
66752;SHT31;53663;42.676;23.238;2023-02-15T03:55:20;2.34;73.82
66752;SHT31;53663;42.676;23.238;2023-02-15T03:57:45;2.39;73.77
66752;SHT31;53663;42.676;23.238;2023-02-15T04:00:34;2.41;73.87
66752;SHT31;53663;42.676;23.238;2023-02-15T04:05:49;2.32;74.34
66752;SHT31;53663;42.676;23.238;2023-02-15T04:08:15;2.41;74.17
66752;SHT31;53663;42.676;23.238;2023-02-15T04:10:41;2.45;74.17
66752;SHT31;53663;42.676;23.238;2023-02-15T04:13:23;2.42;74.22
66752;SHT31;53663;42.676;23.238;2023-02-15T04:15:50;2.35;74.52
66752;SHT31;53663;42.676;23.238;2023-02-15T04:18:39;2.39;74.31
66752;SHT31;53663;42.676;23.238;2023-02-15T04:21:24;2.46;74.13
66752;SHT31;53663;42.676;23.238;2023-02-15T04:24:09;2.49;74.37
66752;SHT31;53663;42.676;23.238;2023-02-15T04:26:53;2.49;74.23
66752;SHT31;53663;42.676;23.238;2023-02-15T04:29:20;2.50;74.27
66752;SHT31;53663;42.676;23.238;2023-02-15T04:31:46;2.52;74.22
66752;SHT31;53663;42.676;23.238;2023-02-15T04:34:12;2.58;74.16
66752;SHT31;53663;42.676;23.238;2023-02-15T04:36:38;2.49;74.35
66752;SHT31;53663;42.676;23.238;2023-02-15T04:39:05;2.49;74.46
66752;SHT31;53663;42.676;23.238;2023-02-15T04:41:30;2.45;74.48
66752;SHT31;53663;42.676;23.238;2023-02-15T04:43:56;2.52;74.38
66752;SHT31;53663;42.676;23.238;2023-02-15T04:46:22;2.53;74.30
66752;SHT31;53663;42.676;23.238;2023-02-15T04:48:48;2.52;74.38
66752;SHT31;53663;42.676;23.238;2023-02-15T04:51:13;2.49;74.44
66752;SHT31;53663;42.676;23.238;2023-02-15T04:53:39;2.58;74.19
66752;SHT31;53663;42.676;23.238;2023-02-15T04:56:04;2.53;74.28
66752;SHT31;53663;42.676;23.238;2023-02-15T04:58:30;2.56;74.28
66752;SHT31;53663;42.676;23.238;2023-02-15T05:00:56;2.52;74.35
66752;SHT31;53663;42.676;23.238;2023-02-15T05:03:22;2.50;74.57
66752;SHT31;53663;42.676;23.238;2023-02-15T05:05:47;2.53;74.43
66752;SHT31;53663;42.676;23.238;2023-02-15T05:08:13;2.59;74.31
66752;SHT31;53663;42.676;23.238;2023-02-15T05:10:38;2.65;74.04
66752;SHT31;53663;42.676;23.238;2023-02-15T05:13:04;2.66;74.04
66752;SHT31;53663;42.676;23.238;2023-02-15T05:15:29;2.67;73.80
66752;SHT31;53663;42.676;23.238;2023-02-15T05:17:55;2.63;73.82
66752;SHT31;53663;42.676;23.238;2023-02-15T05:20:20;2.62;73.97
66752;SHT31;53663;42.676;23.238;2023-02-15T05:22:46;2.59;74.16
66752;SHT31;53663;42.676;23.238;2023-02-15T05:25:11;2.60;74.23
66752;SHT31;53663;42.676;23.238;2023-02-15T05:27:55;2.55;74.24
66752;SHT31;53663;42.676;23.238;2023-02-15T05:30:40;2.60;74.16
66752;SHT31;53663;42.676;23.238;2023-02-15T05:33:06;2.62;74.06
66752;SHT31;53663;42.676;23.238;2023-02-15T05:35:33;2.65;74.04
66752;SHT31;53663;42.676;23.238;2023-02-15T05:37:59;2.66;73.88
66752;SHT31;53663;42.676;23.238;2023-02-15T05:40:24;2.67;73.83
66752;SHT31;53663;42.676;23.238;2023-02-15T05:42:50;2.72;73.87
66752;SHT31;53663;42.676;23.238;2023-02-15T05:45:15;2.73;73.80
66752;SHT31;53663;42.676;23.238;2023-02-15T05:47:41;2.77;73.52
66752;SHT31;53663;42.676;23.238;2023-02-15T05:50:07;2.71;73.63
66752;SHT31;53663;42.676;23.238;2023-02-15T05:52:34;2.65;74.01
66752;SHT31;53663;42.676;23.238;2023-02-15T05:54:59;2.63;74.58
66752;SHT31;53663;42.676;23.238;2023-02-15T05:57:26;2.69;74.22
66752;SHT31;53663;42.676;23.238;2023-02-15T05:59:52;2.67;73.88
66752;SHT31;53663;42.676;23.238;2023-02-15T06:02:17;2.69;73.91
66752;SHT31;53663;42.676;23.238;2023-02-15T06:04:43;2.72;74.09
66752;SHT31;53663;42.676;23.238;2023-02-15T06:07:08;2.77;73.77
66752;SHT31;53663;42.676;23.238;2023-02-15T06:09:34;2.73;73.79
66752;SHT31;53663;42.676;23.238;2023-02-15T06:11:59;2.69;73.71
66752;SHT31;53663;42.676;23.238;2023-02-15T06:14:25;2.66;73.93
66752;SHT31;53663;42.676;23.238;2023-02-15T06:16:50;2.76;73.82
66752;SHT31;53663;42.676;23.238;2023-02-15T06:19:16;2.73;74.05
66752;SHT31;53663;42.676;23.238;2023-02-15T06:21:42;2.77;73.81
66752;SHT31;53663;42.676;23.238;2023-02-15T06:24:10;2.79;73.62
66752;SHT31;53663;42.676;23.238;2023-02-15T06:26:36;2.82;73.53
66752;SHT31;53663;42.676;23.238;2023-02-15T06:29:02;2.83;73.44
66752;SHT31;53663;42.676;23.238;2023-02-15T06:31:28;2.85;73.04
66752;SHT31;53663;42.676;23.238;2023-02-15T06:33:54;2.86;72.96
66752;SHT31;53663;42.676;23.238;2023-02-15T06:36:27;2.77;72.95
66752;SHT31;53663;42.676;23.238;2023-02-15T06:38:54;2.83;73.32
66752;SHT31;53663;42.676;23.238;2023-02-15T06:41:19;2.82;73.01
66752;SHT31;53663;42.676;23.238;2023-02-15T06:43:45;2.93;73.35
66752;SHT31;53663;42.676;23.238;2023-02-15T06:46:10;3.01;72.89
66752;SHT31;53663;42.676;23.238;2023-02-15T06:48:36;3.04;72.33
66752;SHT31;53663;42.676;23.238;2023-02-15T06:51:01;3.13;72.05
66752;SHT31;53663;42.676;23.238;2023-02-15T06:53:27;3.23;71.35
66752;SHT31;53663;42.676;23.238;2023-02-15T06:55:52;3.18;71.17
66752;SHT31;53663;42.676;23.238;2023-02-15T06:58:18;3.27;71.07
66752;SHT31;53663;42.676;23.238;2023-02-15T07:00:43;3.27;70.92
66752;SHT31;53663;42.676;23.238;2023-02-15T07:03:09;3.23;70.68
66752;SHT31;53663;42.676;23.238;2023-02-15T07:05:34;3.30;70.92
66752;SHT31;53663;42.676;23.238;2023-02-15T07:08:00;3.34;70.45
66752;SHT31;53663;42.676;23.238;2023-02-15T07:10:26;3.30;70.68
66752;SHT31;53663;42.676;23.238;2023-02-15T07:12:53;3.25;70.44
66752;SHT31;53663;42.676;23.238;2023-02-15T07:15:19;3.25;70.45
66752;SHT31;53663;42.676;23.238;2023-02-15T07:17:48;3.31;70.67
66752;SHT31;53663;42.676;23.238;2023-02-15T07:20:21;3.35;70.33
66752;SHT31;53663;42.676;23.238;2023-02-15T07:22:48;3.42;70.03
66752;SHT31;53663;42.676;23.238;2023-02-15T07:25:14;3.46;69.50
66752;SHT31;53663;42.676;23.238;2023-02-15T07:27:40;3.48;69.75
66752;SHT31;53663;42.676;23.238;2023-02-15T07:30:08;3.56;70.93
66752;SHT31;53663;42.676;23.238;2023-02-15T07:32:34;3.66;69.56
66752;SHT31;53663;42.676;23.238;2023-02-15T07:35:00;3.74;69.14
66752;SHT31;53663;42.676;23.238;2023-02-15T07:37:27;3.75;68.69
66752;SHT31;53663;42.676;23.238;2023-02-15T07:39:53;3.69;68.73
66752;SHT31;53663;42.676;23.238;2023-02-15T07:42:18;3.82;68.52
66752;SHT31;53663;42.676;23.238;2023-02-15T07:44:45;3.81;68.71
66752;SHT31;53663;42.676;23.238;2023-02-15T07:47:12;3.90;68.88
66752;SHT31;53663;42.676;23.238;2023-02-15T07:49:38;3.93;68.70
66752;SHT31;53663;42.676;23.238;2023-02-15T07:52:03;4.02;68.60
66752;SHT31;53663;42.676;23.238;2023-02-15T07:54:29;4.11;68.33
66752;SHT31;53663;42.676;23.238;2023-02-15T07:56:54;4.21;67.63
66752;SHT31;53663;42.676;23.238;2023-02-15T07:59:20;4.17;67.75
66752;SHT31;53663;42.676;23.238;2023-02-15T08:01:45;4.07;67.64
66752;SHT31;53663;42.676;23.238;2023-02-15T08:04:11;4.16;67.93
66752;SHT31;53663;42.676;23.238;2023-02-15T08:06:37;4.18;68.52
66752;SHT31;53663;42.676;23.238;2023-02-15T08:09:04;4.23;67.72
66752;SHT31;53663;42.676;23.238;2023-02-15T08:11:32;4.21;66.97
66752;SHT31;53663;42.676;23.238;2023-02-15T08:16:43;4.24;67.14
66752;SHT31;53663;42.676;23.238;2023-02-15T08:21:45;4.25;66.91
66752;SHT31;53663;42.676;23.238;2023-02-15T08:24:12;4.24;66.56
66752;SHT31;53663;42.676;23.238;2023-02-15T08:26:39;4.33;66.61
66752;SHT31;53663;42.676;23.238;2023-02-15T08:29:05;4.31;66.84
66752;SHT31;53663;42.676;23.238;2023-02-15T08:31:32;4.31;66.72
66752;SHT31;53663;42.676;23.238;2023-02-15T08:33:58;4.37;66.40
66752;SHT31;53663;42.676;23.238;2023-02-15T08:36:26;4.31;66.34
66752;SHT31;53663;42.676;23.238;2023-02-15T08:38:52;4.33;66.00
66752;SHT31;53663;42.676;23.238;2023-02-15T08:41:24;4.30;66.12
66752;SHT31;53663;42.676;23.238;2023-02-15T08:43:52;4.25;66.09
66752;SHT31;53663;42.676;23.238;2023-02-15T08:46:19;4.21;66.04
66752;SHT31;53663;42.676;23.238;2023-02-15T08:48:45;4.31;65.75
66752;SHT31;53663;42.676;23.238;2023-02-15T08:51:22;4.34;66.07
66752;SHT31;53663;42.676;23.238;2023-02-15T08:53:52;4.31;66.45
66752;SHT31;53663;42.676;23.238;2023-02-15T08:56:21;4.31;67.32
66752;SHT31;53663;42.676;23.238;2023-02-15T08:58:47;4.37;66.93
66752;SHT31;53663;42.676;23.238;2023-02-15T09:01:21;4.45;66.30
66752;SHT31;53663;42.676;23.238;2023-02-15T09:03:49;4.44;66.20
66752;SHT31;53663;42.676;23.238;2023-02-15T09:06:16;4.45;66.25
66752;SHT31;53663;42.676;23.238;2023-02-15T09:08:42;4.45;66.20
66752;SHT31;53663;42.676;23.238;2023-02-15T09:11:13;4.52;66.18
66752;SHT31;53663;42.676;23.238;2023-02-15T09:13:42;4.55;66.05
66752;SHT31;53663;42.676;23.238;2023-02-15T09:16:09;4.55;66.18
66752;SHT31;53663;42.676;23.238;2023-02-15T09:18:38;4.61;66.25
66752;SHT31;53663;42.676;23.238;2023-02-15T09:21:13;4.68;66.09
66752;SHT31;53663;42.676;23.238;2023-02-15T09:23:42;4.71;66.27
66752;SHT31;53663;42.676;23.238;2023-02-15T09:26:11;4.75;65.29
66752;SHT31;53663;42.676;23.238;2023-02-15T09:28:37;4.78;65.07
66752;SHT31;53663;42.676;23.238;2023-02-15T09:31:08;4.79;64.40
66752;SHT31;53663;42.676;23.238;2023-02-15T09:33:35;4.75;64.52
66752;SHT31;53663;42.676;23.238;2023-02-15T09:36:02;4.76;64.19
66752;SHT31;53663;42.676;23.238;2023-02-15T09:38:28;4.85;64.25
66752;SHT31;53663;42.676;23.238;2023-02-15T09:44:00;4.93;64.38
66752;SHT31;53663;42.676;23.238;2023-02-15T09:46:54;4.91;63.92
66752;SHT31;53663;42.676;23.238;2023-02-15T09:49:34;4.97;63.85
66752;SHT31;53663;42.676;23.238;2023-02-15T09:54:44;5.06;64.11
66752;SHT31;53663;42.676;23.238;2023-02-15T09:59:48;5.19;63.33
66752;SHT31;53663;42.676;23.238;2023-02-15T10:07:56;5.15;63.27
66752;SHT31;53663;42.676;23.238;2023-02-15T10:10:43;5.22;63.09
66752;SHT31;53663;42.676;23.238;2023-02-15T10:28:39;5.57;61.68
66752;SHT31;53663;42.676;23.238;2023-02-15T10:31:02;5.54;62.36
66752;SHT31;53663;42.676;23.238;2023-02-15T10:38:48;5.70;61.92
66752;SHT31;53663;42.676;23.238;2023-02-15T10:43:52;5.82;60.06
66752;SHT31;53663;42.676;23.238;2023-02-15T10:46:33;5.82;60.65
66752;SHT31;53663;42.676;23.238;2023-02-15T10:49:05;5.82;60.74
66752;SHT31;53663;42.676;23.238;2023-02-15T10:56:38;5.75;61.87
66752;SHT31;53663;42.676;23.238;2023-02-15T11:04:30;5.77;61.98
66752;SHT31;53663;42.676;23.238;2023-02-15T11:06:59;5.84;62.41
66752;SHT31;53663;42.676;23.238;2023-02-15T11:09:30;5.98;61.65
66752;SHT31;53663;42.676;23.238;2023-02-15T11:11:58;6.05;61.04
66752;SHT31;53663;42.676;23.238;2023-02-15T11:14:37;6.02;61.05
66752;SHT31;53663;42.676;23.238;2023-02-15T11:17:12;6.05;60.99
66752;SHT31;53663;42.676;23.238;2023-02-15T11:19:58;5.98;60.56
66752;SHT31;53663;42.676;23.238;2023-02-15T11:22:28;6.08;60.25
66752;SHT31;53663;42.676;23.238;2023-02-15T11:24:55;6.03;60.62
66752;SHT31;53663;42.676;23.238;2023-02-15T11:27:24;6.09;60.05
66752;SHT31;53663;42.676;23.238;2023-02-15T11:32:20;6.44;59.40
66752;SHT31;53663;42.676;23.238;2023-02-15T11:37:16;6.81;59.33
66752;SHT31;53663;42.676;23.238;2023-02-15T11:39:43;7.05;59.21
66752;SHT31;53663;42.676;23.238;2023-02-15T11:42:11;7.30;57.94
66752;SHT31;53663;42.676;23.238;2023-02-15T11:44:39;7.50;57.76
66752;SHT31;53663;42.676;23.238;2023-02-15T11:47:08;7.73;57.11
66752;SHT31;53663;42.676;23.238;2023-02-15T11:49:35;7.91;55.77
66752;SHT31;53663;42.676;23.238;2023-02-15T11:52:02;8.04;55.65
66752;SHT31;53663;42.676;23.238;2023-02-15T11:54:30;8.25;54.41
66752;SHT31;53663;42.676;23.238;2023-02-15T11:56:59;8.29;54.44
66752;SHT31;53663;42.676;23.238;2023-02-15T11:59:30;8.35;55.05
66752;SHT31;53663;42.676;23.238;2023-02-15T12:01:57;8.39;53.88
66752;SHT31;53663;42.676;23.238;2023-02-15T12:04:57;8.52;53.19
66752;SHT31;53663;42.676;23.238;2023-02-15T12:14:48;8.96;52.53
66752;SHT31;53663;42.676;23.238;2023-02-15T12:17:14;9.01;51.94
66752;SHT31;53663;42.676;23.238;2023-02-15T12:19:40;9.08;52.23
66752;SHT31;53663;42.676;23.238;2023-02-15T12:22:10;9.14;52.04
66752;SHT31;53663;42.676;23.238;2023-02-15T12:24:44;9.04;52.31
66752;SHT31;53663;42.676;23.238;2023-02-15T12:27:14;9.17;51.33
66752;SHT31;53663;42.676;23.238;2023-02-15T12:29:48;9.18;51.88
66752;SHT31;53663;42.676;23.238;2023-02-15T12:32:28;9.21;51.94
66752;SHT31;53663;42.676;23.238;2023-02-15T12:35:02;9.20;51.66
66752;SHT31;53663;42.676;23.238;2023-02-15T12:37:32;9.25;52.96
66752;SHT31;53663;42.676;23.238;2023-02-15T12:40:00;9.31;52.36
66752;SHT31;53663;42.676;23.238;2023-02-15T12:42:26;9.32;51.82
66752;SHT31;53663;42.676;23.238;2023-02-15T12:47:19;9.52;50.67
66752;SHT31;53663;42.676;23.238;2023-02-15T12:49:51;9.49;50.51
66752;SHT31;53663;42.676;23.238;2023-02-15T12:52:28;9.51;50.81
66752;SHT31;53663;42.676;23.238;2023-02-15T12:54:54;9.66;50.84
66752;SHT31;53663;42.676;23.238;2023-02-15T12:59:49;9.76;50.05
66752;SHT31;53663;42.676;23.238;2023-02-15T13:02:18;9.75;50.50
66752;SHT31;53663;42.676;23.238;2023-02-15T13:04:48;9.82;49.89
66752;SHT31;53663;42.676;23.238;2023-02-15T13:07:14;9.82;49.94
66752;SHT31;53663;42.676;23.238;2023-02-15T13:09:40;9.83;50.28
66752;SHT31;53663;42.676;23.238;2023-02-15T13:12:10;9.85;49.98
66752;SHT31;53663;42.676;23.238;2023-02-15T13:14:36;9.82;50.42
66752;SHT31;53663;42.676;23.238;2023-02-15T13:17:02;9.75;50.21
66752;SHT31;53663;42.676;23.238;2023-02-15T13:19:35;9.69;50.70
66752;SHT31;53663;42.676;23.238;2023-02-15T13:22:03;9.65;49.92
66752;SHT31;53663;42.676;23.238;2023-02-15T13:24:35;9.86;50.29
66752;SHT31;53663;42.676;23.238;2023-02-15T13:27:02;9.85;49.99
66752;SHT31;53663;42.676;23.238;2023-02-15T13:29:30;9.96;49.85
66752;SHT31;53663;42.676;23.238;2023-02-15T13:31:57;10.10;49.33
66752;SHT31;53663;42.676;23.238;2023-02-15T13:34:28;10.06;48.75
66752;SHT31;53663;42.676;23.238;2023-02-15T13:39:30;10.13;49.37
66752;SHT31;53663;42.676;23.238;2023-02-15T13:50:03;10.45;47.91
66752;SHT31;53663;42.676;23.238;2023-02-15T13:52:38;10.54;47.73
66752;SHT31;53663;42.676;23.238;2023-02-15T14:00:25;10.47;48.27
66752;SHT31;53663;42.676;23.238;2023-02-15T14:05:22;10.69;47.82
66752;SHT31;53663;42.676;23.238;2023-02-15T14:08:05;10.88;46.97
66752;SHT31;53663;42.676;23.238;2023-02-15T14:10:43;10.73;47.42
66752;SHT31;53663;42.676;23.238;2023-02-15T14:15:56;9.53;50.14
66752;SHT31;53663;42.676;23.238;2023-02-15T14:18:41;9.24;51.29
66752;SHT31;53663;42.676;23.238;2023-02-15T14:23:44;8.67;52.75
66752;SHT31;53663;42.676;23.238;2023-02-15T14:31:05;7.93;54.74
66752;SHT31;53663;42.676;23.238;2023-02-15T14:36:02;7.69;55.46
66752;SHT31;53663;42.676;23.238;2023-02-15T14:41:20;7.25;56.95
66752;SHT31;53663;42.676;23.238;2023-02-15T14:54:00;6.61;58.77
66752;SHT31;53663;42.676;23.238;2023-02-15T14:56:26;6.74;58.76
66752;SHT31;53663;42.676;23.238;2023-02-15T15:01:24;6.74;58.71
66752;SHT31;53663;42.676;23.238;2023-02-15T15:03:52;6.67;58.78
66752;SHT31;53663;42.676;23.238;2023-02-15T15:06:29;6.77;58.51
66752;SHT31;53663;42.676;23.238;2023-02-15T15:08:58;6.74;58.37
66752;SHT31;53663;42.676;23.238;2023-02-15T15:13:57;6.71;58.78
66752;SHT31;53663;42.676;23.238;2023-02-15T15:18:51;6.50;58.91
66752;SHT31;53663;42.676;23.238;2023-02-15T15:24:00;6.26;59.62
66752;SHT31;53663;42.676;23.238;2023-02-15T15:26:30;6.18;59.94
66752;SHT31;53663;42.676;23.238;2023-02-15T15:28:59;6.18;59.76
66752;SHT31;53663;42.676;23.238;2023-02-15T15:48:47;5.61;61.14
66752;SHT31;53663;42.676;23.238;2023-02-15T15:51:27;5.62;61.34
66752;SHT31;53663;42.676;23.238;2023-02-15T15:53:54;5.61;61.27
66752;SHT31;53663;42.676;23.238;2023-02-15T15:56:24;5.51;61.47
66752;SHT31;53663;42.676;23.238;2023-02-15T15:58:53;5.47;61.65
66752;SHT31;53663;42.676;23.238;2023-02-15T16:01:24;5.36;61.94
66752;SHT31;53663;42.676;23.238;2023-02-15T16:03:51;5.16;62.58
66752;SHT31;53663;42.676;23.238;2023-02-15T16:06:27;5.09;62.65
66752;SHT31;53663;42.676;23.238;2023-02-15T16:08:52;4.93;63.14
66752;SHT31;53663;42.676;23.238;2023-02-15T16:11:25;4.99;63.34
66752;SHT31;53663;42.676;23.238;2023-02-15T16:13:51;4.97;63.31
66752;SHT31;53663;42.676;23.238;2023-02-15T16:16:35;4.93;63.38
66752;SHT31;53663;42.676;23.238;2023-02-15T16:19:00;4.92;63.39
66752;SHT31;53663;42.676;23.238;2023-02-15T16:21:27;4.78;63.49
66752;SHT31;53663;42.676;23.238;2023-02-15T16:29:27;4.55;64.19
66752;SHT31;53663;42.676;23.238;2023-02-15T16:32:00;4.41;65.10
66752;SHT31;53663;42.676;23.238;2023-02-15T16:34:25;4.18;65.56
66752;SHT31;53663;42.676;23.238;2023-02-15T16:37:14;4.21;65.82
66752;SHT31;53663;42.676;23.238;2023-02-15T16:39:40;4.10;65.85
66752;SHT31;53663;42.676;23.238;2023-02-15T16:42:06;4.14;65.96
66752;SHT31;53663;42.676;23.238;2023-02-15T16:44:31;3.99;66.40
66752;SHT31;53663;42.676;23.238;2023-02-15T16:46:58;4.06;66.59
66752;SHT31;53663;42.676;23.238;2023-02-15T16:49:25;3.97;66.45
66752;SHT31;53663;42.676;23.238;2023-02-15T16:52:04;4.03;66.31
66752;SHT31;53663;42.676;23.238;2023-02-15T16:54:31;4.06;66.66
66752;SHT31;53663;42.676;23.238;2023-02-15T16:56:57;4.06;66.45
66752;SHT31;53663;42.676;23.238;2023-02-15T16:59:33;4.07;66.51
66752;SHT31;53663;42.676;23.238;2023-02-15T17:01:59;4.06;66.36
66752;SHT31;53663;42.676;23.238;2023-02-15T17:06:58;4.11;66.04
66752;SHT31;53663;42.676;23.238;2023-02-15T17:09:23;4.11;65.92
66752;SHT31;53663;42.676;23.238;2023-02-15T17:11:50;4.10;66.22
66752;SHT31;53663;42.676;23.238;2023-02-15T17:14:19;4.04;66.04
66752;SHT31;53663;42.676;23.238;2023-02-15T17:21:41;3.79;66.94
66752;SHT31;53663;42.676;23.238;2023-02-15T17:24:13;3.89;66.77
66752;SHT31;53663;42.676;23.238;2023-02-15T17:26:40;3.76;66.90
66752;SHT31;53663;42.676;23.238;2023-02-15T17:31:50;3.75;66.94
66752;SHT31;53663;42.676;23.238;2023-02-15T17:37:00;3.51;67.40
66752;SHT31;53663;42.676;23.238;2023-02-15T17:39:27;3.45;67.92
66752;SHT31;53663;42.676;23.238;2023-02-15T17:41:52;3.54;67.53
66752;SHT31;53663;42.676;23.238;2023-02-15T17:44:18;3.44;67.41
66752;SHT31;53663;42.676;23.238;2023-02-15T17:46:43;3.51;67.17
66752;SHT31;53663;42.676;23.238;2023-02-15T17:49:13;3.48;66.99
66752;SHT31;53663;42.676;23.238;2023-02-15T17:51:42;3.44;66.96
66752;SHT31;53663;42.676;23.238;2023-02-15T17:54:08;3.44;67.10
66752;SHT31;53663;42.676;23.238;2023-02-15T17:56:52;3.37;67.34
66752;SHT31;53663;42.676;23.238;2023-02-15T17:59:18;3.44;66.91
66752;SHT31;53663;42.676;23.238;2023-02-15T18:01:47;3.44;66.78
66752;SHT31;53663;42.676;23.238;2023-02-15T18:04:31;3.46;66.49
66752;SHT31;53663;42.676;23.238;2023-02-15T18:07:16;3.54;66.11
66752;SHT31;53663;42.676;23.238;2023-02-15T18:10:02;3.54;66.00
66752;SHT31;53663;42.676;23.238;2023-02-15T18:12:46;3.50;66.26
66752;SHT31;53663;42.676;23.238;2023-02-15T18:15:12;3.41;66.46
66752;SHT31;53663;42.676;23.238;2023-02-15T18:17:38;3.44;66.42
66752;SHT31;53663;42.676;23.238;2023-02-15T18:20:27;3.52;66.13
66752;SHT31;53663;42.676;23.238;2023-02-15T18:22:52;3.42;66.30
66752;SHT31;53663;42.676;23.238;2023-02-15T18:25:19;3.41;66.50
66752;SHT31;53663;42.676;23.238;2023-02-15T18:27:45;3.41;66.41
66752;SHT31;53663;42.676;23.238;2023-02-15T18:30:28;3.44;66.34
66752;SHT31;53663;42.676;23.238;2023-02-15T18:32:56;3.46;66.27
66752;SHT31;53663;42.676;23.238;2023-02-15T18:35:23;3.35;66.43
66752;SHT31;53663;42.676;23.238;2023-02-15T18:37:51;3.37;66.47
66752;SHT31;53663;42.676;23.238;2023-02-15T18:40:18;3.41;66.22
66752;SHT31;53663;42.676;23.238;2023-02-15T18:42:44;3.44;65.79
66752;SHT31;53663;42.676;23.238;2023-02-15T18:45:17;3.42;65.84
66752;SHT31;53663;42.676;23.238;2023-02-15T18:47:44;3.37;65.93
66752;SHT31;53663;42.676;23.238;2023-02-15T18:50:11;3.46;65.83
66752;SHT31;53663;42.676;23.238;2023-02-15T18:52:36;3.41;65.96
66752;SHT31;53663;42.676;23.238;2023-02-15T18:57:40;3.27;66.12
66752;SHT31;53663;42.676;23.238;2023-02-15T19:00:28;3.32;66.20